KPTW/PTW METAR and TAF weather

Enter ICAO airport designator
Station Type Date Time Source
KPTW METAR 2020/11/28 19:54 UTC NOAA

KPTW 281954Z AUTO 30012G17KT 10SM CLR 11/M01 A3002 RMK AO2 SLP162 T01111011


Station Type Date Time Source
KPTW Decoded METAR 2020/11/28 19:54 UTC NOAA

POTTSTOWN LIMERICK AIRPORT, PA, United States (KPTW) 40-14N 075-33W 89M
Nov 28, 2020 - 02:54 PM EST / 2020.11.28 1954 UTC
Wind: from the WNW (300 degrees) at 14 MPH (12 KT) gusting to 20 MPH (17 KT):0
Visibility: 10 mile(s):0
Sky conditions: clear
Temperature: 52.0 F (11.1 C)
Dew Point: 30.0 F (-1.1 C)
Relative Humidity: 42%
Pressure (altimeter): 30.02 in. Hg (1016 hPa)
ob: KPTW 281954Z AUTO 30012G17KT 10SM CLR 11/M01 A3002 RMK AO2 SLP162 T01111011
cycle: 20

Station Type Date Time Source
KPTW TAF UTC NOAA

Error!

Example: see airport list